sensor_id;sensor_type;location;lat;lon;timestamp;pressure;altitude;pressure_sealevel;temperature;humidity
12358;BME280;6243;51.244;6.774;2023-03-26T00:00:01;152323.44;;;19.25;55.09
12358;BME280;6243;51.244;6.774;2023-03-26T00:02:28;152352.94;;;19.36;54.90
12358;BME280;6243;51.244;6.774;2023-03-26T00:04:53;152370.88;;;19.43;55.18
12358;BME280;6243;51.244;6.774;2023-03-26T00:07:19;152363.16;;;19.40;54.82
12358;BME280;6243;51.244;6.774;2023-03-26T00:09:44;152378.50;;;19.46;54.59
12358;BME280;6243;51.244;6.774;2023-03-26T00:12:10;152305.53;;;19.18;55.19
12358;BME280;6243;51.244;6.774;2023-03-26T00:14:36;152319.63;;;19.23;54.61
12358;BME280;6243;51.244;6.774;2023-03-26T00:17:01;152402.84;;;19.56;53.89
12358;BME280;6243;51.244;6.774;2023-03-26T00:19:28;152310.66;;;19.20;54.82
12358;BME280;6243;51.244;6.774;2023-03-26T00:21:54;152209.59;;;18.80;55.23
12358;BME280;6243;51.244;6.774;2023-03-26T00:24:20;152342.66;;;19.32;54.13
12358;BME280;6243;51.244;6.774;2023-03-26T00:26:45;152180.16;;;18.68;55.26
12358;BME280;6243;51.244;6.774;2023-03-26T00:29:11;152134.13;;;18.50;55.61
12358;BME280;6243;51.244;6.774;2023-03-26T00:31:36;152355.47;;;19.37;54.29
12358;BME280;6243;51.244;6.774;2023-03-26T00:34:02;152379.81;;;19.47;53.91
12358;BME280;6243;51.244;6.774;2023-03-26T00:36:29;152267.16;;;19.02;54.74
12358;BME280;6243;51.244;6.774;2023-03-26T00:38:55;152314.53;;;19.21;55.07
12358;BME280;6243;51.244;6.774;2023-03-26T00:41:22;152153.28;;;18.58;56.57
12358;BME280;6243;51.244;6.774;2023-03-26T00:43:49;152258.19;;;18.99;54.97
12358;BME280;6243;51.244;6.774;2023-03-26T00:46:15;152182.69;;;18.69;55.44
12358;BME280;6243;51.244;6.774;2023-03-26T00:48:41;152268.41;;;19.03;54.55
12358;BME280;6243;51.244;6.774;2023-03-26T00:51:06;152264.59;;;19.01;54.90
12358;BME280;6243;51.244;6.774;2023-03-26T00:53:33;152311.94;;;19.20;54.52
12358;BME280;6243;51.244;6.774;2023-03-26T00:55:59;152235.16;;;18.90;55.41
12358;BME280;6243;51.244;6.774;2023-03-26T00:58:24;152305.53;;;19.18;54.91
12358;BME280;6243;51.244;6.774;2023-03-26T01:00:52;152040.72;;;18.13;56.59
12358;BME280;6243;51.244;6.774;2023-03-26T01:03:19;152200.59;;;18.76;55.72
12358;BME280;6243;51.244;6.774;2023-03-26T01:05:48;152210.84;;;18.80;55.50
12358;BME280;6243;51.244;6.774;2023-03-26T01:08:25;152090.56;;;18.33;56.62
12358;BME280;6243;51.244;6.774;2023-03-26T01:10:55;152166.06;;;18.63;56.23
12358;BME280;6243;51.244;6.774;2023-03-26T01:13:23;152099.53;;;18.36;56.81
12358;BME280;6243;51.244;6.774;2023-03-26T01:15:49;152246.66;;;18.94;55.45
12358;BME280;6243;51.244;6.774;2023-03-26T01:18:16;152265.88;;;19.02;55.58
12358;BME280;6243;51.244;6.774;2023-03-26T01:20:42;152311.94;;;19.20;55.20
12358;BME280;6243;51.244;6.774;2023-03-26T01:23:09;152334.97;;;19.29;54.99
12358;BME280;6243;51.244;6.774;2023-03-26T01:25:39;152283.78;;;19.09;55.20
12358;BME280;6243;51.244;6.774;2023-03-26T01:28:09;152314.53;;;19.21;55.78
12358;BME280;6243;51.244;6.774;2023-03-26T01:30:38;152341.38;;;19.32;54.89
12358;BME280;6243;51.244;6.774;2023-03-26T01:33:10;152306.81;;;19.18;55.06
12358;BME280;6243;51.244;6.774;2023-03-26T01:35:44;152283.78;;;19.09;55.49
12358;BME280;6243;51.244;6.774;2023-03-26T01:38:18;152290.19;;;19.11;55.79
12358;BME280;6243;51.244;6.774;2023-03-26T01:40:52;152306.81;;;19.18;55.32
12358;BME280;6243;51.244;6.774;2023-03-26T01:43:24;152204.44;;;18.78;55.98
12358;BME280;6243;51.244;6.774;2023-03-26T01:45:53;152258.19;;;18.99;55.66
12358;BME280;6243;51.244;6.774;2023-03-26T01:48:20;152177.59;;;18.67;56.09
12358;BME280;6243;51.244;6.774;2023-03-26T01:50:52;152134.13;;;18.50;56.68
12358;BME280;6243;51.244;6.774;2023-03-26T01:53:17;152113.56;;;18.42;56.59
12358;BME280;6243;51.244;6.774;2023-03-26T01:55:53;152119.97;;;18.44;56.18
12358;BME280;6243;51.244;6.774;2023-03-26T01:58:26;152072.66;;;18.26;56.86
12358;BME280;6243;51.244;6.774;2023-03-26T02:00:59;152153.28;;;18.58;56.42
12358;BME280;6243;51.244;6.774;2023-03-26T02:03:30;152062.44;;;18.22;56.90
12358;BME280;6243;51.244;6.774;2023-03-26T02:06:01;151952.47;;;17.79;57.16
12358;BME280;6243;51.244;6.774;2023-03-26T02:11:34;151819.50;;;17.26;58.81
12358;BME280;6243;51.244;6.774;2023-03-26T02:14:02;151834.81;;;17.32;59.11
12358;BME280;6243;51.244;6.774;2023-03-26T02:16:28;151724.94;;;16.89;59.58
12358;BME280;6243;51.244;6.774;2023-03-26T02:18:54;151726.22;;;16.89;60.43
12358;BME280;6243;51.244;6.774;2023-03-26T02:21:20;151640.66;;;16.56;61.30
12358;BME280;6243;51.244;6.774;2023-03-26T02:23:48;151742.84;;;16.96;60.38
12358;BME280;6243;51.244;6.774;2023-03-26T02:26:16;151727.53;;;16.90;60.24
12358;BME280;6243;51.244;6.774;2023-03-26T02:28:43;151809.31;;;17.22;59.03
12358;BME280;6243;51.244;6.774;2023-03-26T02:31:09;151659.84;;;16.63;60.06
12358;BME280;6243;51.244;6.774;2023-03-26T02:33:34;151787.53;;;17.14;58.89
12358;BME280;6243;51.244;6.774;2023-03-26T02:36:00;151862.94;;;17.43;58.81
12358;BME280;6243;51.244;6.774;2023-03-26T02:38:26;151765.84;;;17.05;59.11
12358;BME280;6243;51.244;6.774;2023-03-26T02:40:52;151820.78;;;17.27;58.40
12358;BME280;6243;51.244;6.774;2023-03-26T02:43:17;151791.41;;;17.15;58.55
12358;BME280;6243;51.244;6.774;2023-03-26T02:45:44;151658.56;;;16.63;60.40
12358;BME280;6243;51.244;6.774;2023-03-26T02:48:10;151891.16;;;17.54;58.22
12358;BME280;6243;51.244;6.774;2023-03-26T02:50:35;151718.56;;;16.86;59.23
12358;BME280;6243;51.244;6.774;2023-03-26T02:53:01;151855.31;;;17.40;58.15
12358;BME280;6243;51.244;6.774;2023-03-26T02:55:26;151865.50;;;17.44;58.02
12358;BME280;6243;51.244;6.774;2023-03-26T02:57:52;151737.72;;;16.94;58.36
12358;BME280;6243;51.244;6.774;2023-03-26T03:00:18;151563.97;;;16.25;60.87
12358;BME280;6243;51.244;6.774;2023-03-26T03:02:45;151763.31;;;17.04;58.68
12358;BME280;6243;51.244;6.774;2023-03-26T03:05:10;151684.06;;;16.73;59.64
12358;BME280;6243;51.244;6.774;2023-03-26T03:07:36;151753.03;;;17.00;58.99
12358;BME280;6243;51.244;6.774;2023-03-26T03:10:01;151700.66;;;16.79;59.46
12358;BME280;6243;51.244;6.774;2023-03-26T03:12:27;151565.28;;;16.26;60.32
12358;BME280;6243;51.244;6.774;2023-03-26T03:14:52;151575.47;;;16.30;60.07
12358;BME280;6243;51.244;6.774;2023-03-26T03:17:17;151663.66;;;16.65;59.11
12358;BME280;6243;51.244;6.774;2023-03-26T03:19:44;151588.25;;;16.35;59.75
12358;BME280;6243;51.244;6.774;2023-03-26T03:22:10;151653.44;;;16.61;59.58
12358;BME280;6243;51.244;6.774;2023-03-26T03:24:35;151785.00;;;17.13;58.27
12358;BME280;6243;51.244;6.774;2023-03-26T03:27:01;151696.84;;;16.78;59.01
12358;BME280;6243;51.244;6.774;2023-03-26T03:29:26;151874.44;;;17.48;57.79
12358;BME280;6243;51.244;6.774;2023-03-26T03:31:52;151879.59;;;17.50;57.07
12358;BME280;6243;51.244;6.774;2023-03-26T03:34:17;151937.16;;;17.73;56.86
12358;BME280;6243;51.244;6.774;2023-03-26T03:36:44;151896.25;;;17.56;57.31
12358;BME280;6243;51.244;6.774;2023-03-26T03:39:10;151800.31;;;17.19;57.52
12358;BME280;6243;51.244;6.774;2023-03-26T03:41:35;151845.09;;;17.36;57.27
12358;BME280;6243;51.244;6.774;2023-03-26T03:44:01;151762.00;;;17.03;58.74
12358;BME280;6243;51.244;6.774;2023-03-26T03:46:26;151942.25;;;17.75;57.15
12358;BME280;6243;51.244;6.774;2023-03-26T03:48:52;151958.88;;;17.81;56.96
12358;BME280;6243;51.244;6.774;2023-03-26T03:51:17;151994.69;;;17.95;56.61
12358;BME280;6243;51.244;6.774;2023-03-26T03:53:45;151966.56;;;17.84;56.80
12358;BME280;6243;51.244;6.774;2023-03-26T03:56:10;151919.25;;;17.65;57.38
12358;BME280;6243;51.244;6.774;2023-03-26T03:58:36;151934.56;;;17.71;57.20
12358;BME280;6243;51.244;6.774;2023-03-26T04:01:01;151828.44;;;17.30;58.18
12358;BME280;6243;51.244;6.774;2023-03-26T04:03:27;151745.41;;;16.97;58.81
12358;BME280;6243;51.244;6.774;2023-03-26T04:05:53;151701.94;;;16.80;60.00
12358;BME280;6243;51.244;6.774;2023-03-26T04:08:19;151827.19;;;17.29;58.87
12358;BME280;6243;51.244;6.774;2023-03-26T04:10:46;151770.94;;;17.07;59.11
12358;BME280;6243;51.244;6.774;2023-03-26T04:13:13;151781.19;;;17.11;58.77
12358;BME280;6243;51.244;6.774;2023-03-26T04:15:39;151823.31;;;17.28;59.26
12358;BME280;6243;51.244;6.774;2023-03-26T04:18:05;151793.94;;;17.16;59.94
12358;BME280;6243;51.244;6.774;2023-03-26T04:20:30;151813.13;;;17.24;59.98
12358;BME280;6243;51.244;6.774;2023-03-26T04:22:56;151871.91;;;17.47;59.24
12358;BME280;6243;51.244;6.774;2023-03-26T04:25:21;151917.97;;;17.65;59.59
12358;BME280;6243;51.244;6.774;2023-03-26T04:27:48;151894.97;;;17.56;59.63
12358;BME280;6243;51.244;6.774;2023-03-26T04:30:17;151919.25;;;17.65;59.48
12358;BME280;6243;51.244;6.774;2023-03-26T04:32:43;151963.97;;;17.83;59.48
12358;BME280;6243;51.244;6.774;2023-03-26T04:35:11;151966.56;;;17.84;59.85
12358;BME280;6243;51.244;6.774;2023-03-26T04:37:39;152036.84;;;18.12;59.17
12358;BME280;6243;51.244;6.774;2023-03-26T04:40:06;152099.53;;;18.36;58.61
12358;BME280;6243;51.244;6.774;2023-03-26T04:42:32;152119.97;;;18.44;58.74
12358;BME280;6243;51.244;6.774;2023-03-26T04:44:59;151933.28;;;17.71;60.08
12358;BME280;6243;51.244;6.774;2023-03-26T04:47:25;151878.31;;;17.49;60.98
12358;BME280;6243;51.244;6.774;2023-03-26T04:49:50;151993.38;;;17.95;60.45
12358;BME280;6243;51.244;6.774;2023-03-26T04:52:16;152026.63;;;18.08;60.34
12358;BME280;6243;51.244;6.774;2023-03-26T04:54:42;152072.66;;;18.26;59.82
12358;BME280;6243;51.244;6.774;2023-03-26T04:57:13;152050.94;;;18.17;60.42
12358;BME280;6243;51.244;6.774;2023-03-26T04:59:40;152062.44;;;18.22;60.23
12358;BME280;6243;51.244;6.774;2023-03-26T05:02:07;152076.53;;;18.27;59.90
12358;BME280;6243;51.244;6.774;2023-03-26T05:04:32;152121.31;;;18.45;59.47
12358;BME280;6243;51.244;6.774;2023-03-26T05:06:58;152105.88;;;18.39;59.73
12358;BME280;6243;51.244;6.774;2023-03-26T05:09:24;151985.72;;;17.92;60.76
12358;BME280;6243;51.244;6.774;2023-03-26T05:11:49;152020.22;;;18.05;60.79
12358;BME280;6243;51.244;6.774;2023-03-26T05:14:15;152071.38;;;18.25;59.92
12358;BME280;6243;51.244;6.774;2023-03-26T05:16:41;152062.44;;;18.22;59.70
12358;BME280;6243;51.244;6.774;2023-03-26T05:19:08;152045.81;;;18.15;60.73
12358;BME280;6243;51.244;6.774;2023-03-26T05:21:34;152049.63;;;18.17;60.21
12358;BME280;6243;51.244;6.774;2023-03-26T05:23:59;152052.22;;;18.18;60.39
12358;BME280;6243;51.244;6.774;2023-03-26T05:26:25;151981.88;;;17.90;61.21
12358;BME280;6243;51.244;6.774;2023-03-26T05:28:50;152072.66;;;18.26;60.30
12358;BME280;6243;51.244;6.774;2023-03-26T05:31:17;152136.66;;;18.51;58.95
12358;BME280;6243;51.244;6.774;2023-03-26T05:33:42;152154.56;;;18.58;58.87
12358;BME280;6243;51.244;6.774;2023-03-26T05:36:11;152149.44;;;18.56;58.89
12358;BME280;6243;51.244;6.774;2023-03-26T05:38:36;152192.91;;;18.73;58.01
12358;BME280;6243;51.244;6.774;2023-03-26T05:41:04;152140.53;;;18.53;58.83
12358;BME280;6243;51.244;6.774;2023-03-26T05:43:30;152162.25;;;18.61;58.20
12358;BME280;6243;51.244;6.774;2023-03-26T05:45:56;152105.88;;;18.39;58.84
12358;BME280;6243;51.244;6.774;2023-03-26T05:48:22;152082.88;;;18.30;59.09
12358;BME280;6243;51.244;6.774;2023-03-26T05:50:48;152149.44;;;18.56;58.13
12358;BME280;6243;51.244;6.774;2023-03-26T05:53:16;152109.75;;;18.40;58.59
12358;BME280;6243;51.244;6.774;2023-03-26T05:55:43;152143.06;;;18.54;58.10
12358;BME280;6243;51.244;6.774;2023-03-26T05:58:09;152091.84;;;18.33;58.82
12358;BME280;6243;51.244;6.774;2023-03-26T06:00:34;152093.13;;;18.34;58.68
12358;BME280;6243;51.244;6.774;2023-03-26T06:03:00;152136.66;;;18.51;58.37
12358;BME280;6243;51.244;6.774;2023-03-26T06:05:25;152187.81;;;18.71;57.67
12358;BME280;6243;51.244;6.774;2023-03-26T06:07:51;152205.72;;;18.78;57.32
12358;BME280;6243;51.244;6.774;2023-03-26T06:10:18;152200.59;;;18.76;57.30
12358;BME280;6243;51.244;6.774;2023-03-26T06:12:43;152059.84;;;18.21;58.61
12358;BME280;6243;51.244;6.774;2023-03-26T06:15:10;152185.28;;;18.70;57.71
12358;BME280;6243;51.244;6.774;2023-03-26T06:17:35;152107.19;;;18.39;58.35
12358;BME280;6243;51.244;6.774;2023-03-26T06:20:01;152096.97;;;18.35;58.56
12358;BME280;6243;51.244;6.774;2023-03-26T06:22:26;152181.41;;;18.69;58.13
12358;BME280;6243;51.244;6.774;2023-03-26T06:24:51;152237.72;;;18.91;57.68
12358;BME280;6243;51.244;6.774;2023-03-26T06:27:18;152123.84;;;18.46;58.28
12358;BME280;6243;51.244;6.774;2023-03-26T06:29:44;152192.91;;;18.73;58.16
12358;BME280;6243;51.244;6.774;2023-03-26T06:32:09;151967.81;;;17.85;59.87
12358;BME280;6243;51.244;6.774;2023-03-26T06:34:35;152068.84;;;18.24;58.84
12358;BME280;6243;51.244;6.774;2023-03-26T06:37:00;151985.72;;;17.92;61.22
12358;BME280;6243;51.244;6.774;2023-03-26T06:39:26;152114.88;;;18.42;59.27
12358;BME280;6243;51.244;6.774;2023-03-26T06:41:51;152160.97;;;18.61;58.52
12358;BME280;6243;51.244;6.774;2023-03-26T06:44:18;152150.75;;;18.57;58.78
12358;BME280;6243;51.244;6.774;2023-03-26T06:46:44;152159.66;;;18.60;58.88
12358;BME280;6243;51.244;6.774;2023-03-26T06:49:09;152172.47;;;18.65;58.96
12358;BME280;6243;51.244;6.774;2023-03-26T06:51:35;152181.41;;;18.69;58.79
12358;BME280;6243;51.244;6.774;2023-03-26T06:54:00;152187.81;;;18.71;58.10
12358;BME280;6243;51.244;6.774;2023-03-26T06:56:26;152175.06;;;18.66;58.61
12358;BME280;6243;51.244;6.774;2023-03-26T06:58:51;152191.69;;;18.73;58.68
12358;BME280;6243;51.244;6.774;2023-03-26T07:01:18;152065.00;;;18.23;60.13
12358;BME280;6243;51.244;6.774;2023-03-26T07:03:43;152163.53;;;18.62;59.25
12358;BME280;6243;51.244;6.774;2023-03-26T07:06:09;152173.75;;;18.66;59.37
12358;BME280;6243;51.244;6.774;2023-03-26T07:08:34;152183.97;;;18.70;59.18
12358;BME280;6243;51.244;6.774;2023-03-26T07:11:00;152077.75;;;18.28;60.59
12358;BME280;6243;51.244;6.774;2023-03-26T07:13:25;152057.31;;;18.20;60.33
12358;BME280;6243;51.244;6.774;2023-03-26T07:15:51;151901.34;;;17.58;62.29
12358;BME280;6243;51.244;6.774;2023-03-26T07:18:18;151993.38;;;17.95;61.57
12358;BME280;6243;51.244;6.774;2023-03-26T07:20:44;152006.19;;;18.00;61.78
12358;BME280;6243;51.244;6.774;2023-03-26T07:23:10;152044.53;;;18.15;61.35
12358;BME280;6243;51.244;6.774;2023-03-26T07:25:36;151985.72;;;17.92;62.85
12358;BME280;6243;51.244;6.774;2023-03-26T07:28:09;152054.75;;;18.19;61.69
12358;BME280;6243;51.244;6.774;2023-03-26T07:30:45;152121.31;;;18.45;61.52
12358;BME280;6243;51.244;6.774;2023-03-26T07:33:21;151848.91;;;17.38;63.41
12358;BME280;6243;51.244;6.774;2023-03-26T07:35:52;151938.41;;;17.73;62.85
12358;BME280;6243;51.244;6.774;2023-03-26T07:38:29;151776.03;;;17.09;65.75
12358;BME280;6243;51.244;6.774;2023-03-26T07:41:03;151868.09;;;17.45;65.43
12358;BME280;6243;51.244;6.774;2023-03-26T07:43:43;151691.75;;;16.76;67.61
12358;BME280;6243;51.244;6.774;2023-03-26T07:46:13;151896.25;;;17.56;65.63
12358;BME280;6243;51.244;6.774;2023-03-26T07:48:42;152077.75;;;18.28;62.91
12358;BME280;6243;51.244;6.774;2023-03-26T07:51:09;152096.97;;;18.35;62.87
12358;BME280;6243;51.244;6.774;2023-03-26T07:53:35;152075.22;;;18.27;62.83
12358;BME280;6243;51.244;6.774;2023-03-26T07:56:06;152137.94;;;18.52;62.25
12358;BME280;6243;51.244;6.774;2023-03-26T07:58:45;152113.56;;;18.42;62.51
12358;BME280;6243;51.244;6.774;2023-03-26T08:01:17;152077.75;;;18.28;62.86
12358;BME280;6243;51.244;6.774;2023-03-26T08:04:07;151975.47;;;17.88;64.29
12358;BME280;6243;51.244;6.774;2023-03-26T08:06:35;151957.59;;;17.81;64.82
12358;BME280;6243;51.244;6.774;2023-03-26T08:09:07;151998.50;;;17.97;63.93
12358;BME280;6243;51.244;6.774;2023-03-26T08:11:43;151956.28;;;17.80;65.04
12358;BME280;6243;51.244;6.774;2023-03-26T08:14:23;152029.19;;;18.09;63.47
12358;BME280;6243;51.244;6.774;2023-03-26T08:16:53;151892.38;;;17.55;66.82
12358;BME280;6243;51.244;6.774;2023-03-26T08:19:35;151926.91;;;17.68;65.34
12358;BME280;6243;51.244;6.774;2023-03-26T08:22:10;152024.09;;;18.07;64.14
12358;BME280;6243;51.244;6.774;2023-03-26T08:24:42;151801.63;;;17.19;66.46
12358;BME280;6243;51.244;6.774;2023-03-26T08:27:15;151985.72;;;17.92;64.83
12358;BME280;6243;51.244;6.774;2023-03-26T08:29:47;151903.88;;;17.59;65.96
12358;BME280;6243;51.244;6.774;2023-03-26T08:32:17;151894.97;;;17.56;65.71
12358;BME280;6243;51.244;6.774;2023-03-26T08:34:44;151675.16;;;16.69;71.41
12358;BME280;6243;51.244;6.774;2023-03-26T08:37:10;151892.38;;;17.55;66.55
12358;BME280;6243;51.244;6.774;2023-03-26T08:39:35;151841.22;;;17.35;67.46
12358;BME280;6243;51.244;6.774;2023-03-26T08:51:46;151966.56;;;17.84;65.82
12358;BME280;6243;51.244;6.774;2023-03-26T08:57:42;151919.25;;;17.65;66.15
12358;BME280;6243;51.244;6.774;2023-03-26T09:00:35;151851.44;;;17.39;68.66
12358;BME280;6243;51.244;6.774;2023-03-26T09:03:24;151966.56;;;17.84;67.32
12358;BME280;6243;51.244;6.774;2023-03-26T09:06:19;151829.72;;;17.30;69.77
12358;BME280;6243;51.244;6.774;2023-03-26T09:09:19;151932.03;;;17.70;67.88
12358;BME280;6243;51.244;6.774;2023-03-26T09:12:14;151829.72;;;17.30;68.98
12358;BME280;6243;51.244;6.774;2023-03-26T09:15:26;151905.19;;;17.60;68.48
12358;BME280;6243;51.244;6.774;2023-03-26T09:18:23;151900.06;;;17.58;68.98
12358;BME280;6243;51.244;6.774;2023-03-26T09:24:33;151804.19;;;17.20;69.73
12358;BME280;6243;51.244;6.774;2023-03-26T09:27:10;151924.38;;;17.67;67.37
12358;BME280;6243;51.244;6.774;2023-03-26T09:33:01;151929.47;;;17.69;68.01
12358;BME280;6243;51.244;6.774;2023-03-26T09:35:52;151558.88;;;16.23;69.13
12358;BME280;6243;51.244;6.774;2023-03-26T09:38:36;151879.59;;;17.50;65.95
12358;BME280;6243;51.244;6.774;2023-03-26T09:41:09;151678.97;;;16.71;69.43
12358;BME280;6243;51.244;6.774;2023-03-26T09:43:52;151880.84;;;17.50;66.13
12358;BME280;6243;51.244;6.774;2023-03-26T09:46:28;151523.13;;;16.09;68.94
12358;BME280;6243;51.244;6.774;2023-03-26T09:52:30;151801.63;;;17.19;65.19
12358;BME280;6243;51.244;6.774;2023-03-26T09:55:11;151670.03;;;16.67;66.10
12358;BME280;6243;51.244;6.774;2023-03-26T09:57:57;151654.69;;;16.61;65.90
12358;BME280;6243;51.244;6.774;2023-03-26T10:00:29;151857.81;;;17.41;62.57
12358;BME280;6243;51.244;6.774;2023-03-26T10:03:13;151980.59;;;17.90;61.75
12358;BME280;6243;51.244;6.774;2023-03-26T10:06:11;152047.09;;;18.16;60.83
12358;BME280;6243;51.244;6.774;2023-03-26T10:08:51;151962.69;;;17.83;61.03
12358;BME280;6243;51.244;6.774;2023-03-26T10:11:26;151921.78;;;17.66;61.43
12358;BME280;6243;51.244;6.774;2023-03-26T10:14:03;151965.28;;;17.84;62.00
12358;BME280;6243;51.244;6.774;2023-03-26T10:16:40;151809.31;;;17.22;64.40
12358;BME280;6243;51.244;6.774;2023-03-26T10:19:34;151984.41;;;17.91;62.20
12358;BME280;6243;51.244;6.774;2023-03-26T10:22:18;151892.38;;;17.55;62.79
12358;BME280;6243;51.244;6.774;2023-03-26T10:27:43;152011.28;;;18.02;60.77
12358;BME280;6243;51.244;6.774;2023-03-26T10:30:27;151994.69;;;17.95;60.75
12358;BME280;6243;51.244;6.774;2023-03-26T10:33:02;151935.88;;;17.72;61.66
12358;BME280;6243;51.244;6.774;2023-03-26T10:35:47;151836.13;;;17.33;63.16
12358;BME280;6243;51.244;6.774;2023-03-26T10:38:23;151915.38;;;17.64;62.14
12358;BME280;6243;51.244;6.774;2023-03-26T10:41:00;151772.22;;;17.08;63.63
12358;BME280;6243;51.244;6.774;2023-03-26T10:43:58;151824.63;;;17.28;62.87
12358;BME280;6243;51.244;6.774;2023-03-26T10:47:06;152010.00;;;18.01;61.27
12358;BME280;6243;51.244;6.774;2023-03-26T10:49:49;151956.28;;;17.80;61.41
12358;BME280;6243;51.244;6.774;2023-03-26T10:52:21;151974.19;;;17.87;61.57
12358;BME280;6243;51.244;6.774;2023-03-26T10:54:54;151883.47;;;17.51;60.74
12358;BME280;6243;51.244;6.774;2023-03-26T10:57:32;151909.00;;;17.61;61.08
12358;BME280;6243;51.244;6.774;2023-03-26T11:00:06;151921.78;;;17.66;61.63
12358;BME280;6243;51.244;6.774;2023-03-26T11:02:43;152018.97;;;18.05;60.63
12358;BME280;6243;51.244;6.774;2023-03-26T11:05:42;152013.81;;;18.03;59.91
12358;BME280;6243;51.244;6.774;2023-03-26T11:08:13;152053.50;;;18.18;60.30
12358;BME280;6243;51.244;6.774;2023-03-26T11:10:48;152016.41;;;18.04;60.03
12358;BME280;6243;51.244;6.774;2023-03-26T11:13:24;152039.41;;;18.13;60.27
12358;BME280;6243;51.244;6.774;2023-03-26T11:15:55;151972.91;;;17.87;61.15
12358;BME280;6243;51.244;6.774;2023-03-26T11:18:34;152102.06;;;18.37;59.67
12358;BME280;6243;51.244;6.774;2023-03-26T11:21:07;152024.09;;;18.07;60.06
12358;BME280;6243;51.244;6.774;2023-03-26T11:23:34;152082.88;;;18.30;59.75
12358;BME280;6243;51.244;6.774;2023-03-26T11:26:06;152059.84;;;18.21;59.94
12358;BME280;6243;51.244;6.774;2023-03-26T11:28:54;152039.41;;;18.13;60.78
12358;BME280;6243;51.244;6.774;2023-03-26T11:31:28;152077.75;;;18.28;60.41
12358;BME280;6243;51.244;6.774;2023-03-26T11:34:01;152136.66;;;18.51;60.34
12358;BME280;6243;51.244;6.774;2023-03-26T11:36:30;152212.13;;;18.81;60.00
12358;BME280;6243;51.244;6.774;2023-03-26T11:38:59;152241.56;;;18.92;60.16
12358;BME280;6243;51.244;6.774;2023-03-26T11:41:28;152216.00;;;18.82;58.58
12358;BME280;6243;51.244;6.774;2023-03-26T11:43:57;152250.53;;;18.96;58.39
12358;BME280;6243;51.244;6.774;2023-03-26T11:46:25;152176.28;;;18.67;58.29
12358;BME280;6243;51.244;6.774;2023-03-26T11:48:52;152268.41;;;19.03;57.63
12358;BME280;6243;51.244;6.774;2023-03-26T11:51:28;152129.00;;;18.48;59.36
12358;BME280;6243;51.244;6.774;2023-03-26T11:53:55;152155.84;;;18.59;59.15
12358;BME280;6243;51.244;6.774;2023-03-26T11:56:26;152130.25;;;18.49;59.05
12358;BME280;6243;51.244;6.774;2023-03-26T11:58:55;152218.53;;;18.83;59.14
12358;BME280;6243;51.244;6.774;2023-03-26T12:01:25;152172.47;;;18.65;58.87
12358;BME280;6243;51.244;6.774;2023-03-26T12:03:57;152127.72;;;18.48;59.42
12358;BME280;6243;51.244;6.774;2023-03-26T12:06:25;152122.59;;;18.46;59.45
12358;BME280;6243;51.244;6.774;2023-03-26T12:08:51;152172.47;;;18.65;59.50
12358;BME280;6243;51.244;6.774;2023-03-26T12:11:17;152024.09;;;18.07;60.19
12358;BME280;6243;51.244;6.774;2023-03-26T12:13:50;152137.94;;;18.52;59.50
12358;BME280;6243;51.244;6.774;2023-03-26T12:16:19;152134.13;;;18.50;60.16
12358;BME280;6243;51.244;6.774;2023-03-26T12:18:46;152187.81;;;18.71;59.60
12358;BME280;6243;51.244;6.774;2023-03-26T12:21:22;152132.84;;;18.50;58.96
12358;BME280;6243;51.244;6.774;2023-03-26T12:23:54;152105.88;;;18.39;59.08
12358;BME280;6243;51.244;6.774;2023-03-26T12:26:30;152171.19;;;18.65;58.60
12358;BME280;6243;51.244;6.774;2023-03-26T12:28:56;152214.69;;;18.82;58.80
12358;BME280;6243;51.244;6.774;2023-03-26T12:31:22;152162.25;;;18.61;58.87
12358;BME280;6243;51.244;6.774;2023-03-26T12:34:05;152141.75;;;18.53;58.31
12358;BME280;6243;51.244;6.774;2023-03-26T12:36:32;152155.84;;;18.59;58.59
12358;BME280;6243;51.244;6.774;2023-03-26T12:39:00;152134.13;;;18.50;58.85
12358;BME280;6243;51.244;6.774;2023-03-26T12:41:33;152040.72;;;18.13;59.45
12358;BME280;6243;51.244;6.774;2023-03-26T12:44:18;152127.72;;;18.48;59.52
12358;BME280;6243;51.244;6.774;2023-03-26T12:46:49;152149.44;;;18.56;58.84
12358;BME280;6243;51.244;6.774;2023-03-26T12:49:15;152123.84;;;18.46;59.75
12358;BME280;6243;51.244;6.774;2023-03-26T12:51:47;152130.25;;;18.49;59.66
12358;BME280;6243;51.244;6.774;2023-03-26T12:54:29;152105.88;;;18.39;59.90
12358;BME280;6243;51.244;6.774;2023-03-26T12:57:12;152155.84;;;18.59;59.61
12358;BME280;6243;51.244;6.774;2023-03-26T12:59:51;152213.41;;;18.81;59.60
12358;BME280;6243;51.244;6.774;2023-03-26T13:02:35;152163.53;;;18.62;59.46
12358;BME280;6243;51.244;6.774;2023-03-26T13:05:17;152180.16;;;18.68;59.04
12358;BME280;6243;51.244;6.774;2023-03-26T13:07:56;152152.03;;;18.57;59.50
12358;BME280;6243;51.244;6.774;2023-03-26T13:10:38;152203.19;;;18.77;59.73
12358;BME280;6243;51.244;6.774;2023-03-26T13:13:18;152282.50;;;19.08;59.30
12358;BME280;6243;51.244;6.774;2023-03-26T13:15:51;152192.91;;;18.73;59.01
12358;BME280;6243;51.244;6.774;2023-03-26T13:18:24;152167.38;;;18.63;59.15
12358;BME280;6243;51.244;6.774;2023-03-26T13:20:57;152177.59;;;18.67;58.96
12358;BME280;6243;51.244;6.774;2023-03-26T13:23:35;152209.59;;;18.80;58.48
12358;BME280;6243;51.244;6.774;2023-03-26T13:26:16;152256.88;;;18.98;58.50
12358;BME280;6243;51.244;6.774;2023-03-26T13:28:55;152296.59;;;19.14;58.81
12358;BME280;6243;51.244;6.774;2023-03-26T13:31:29;152328.56;;;19.27;58.84
12358;BME280;6243;51.244;6.774;2023-03-26T13:34:04;152324.75;;;19.25;58.76
12358;BME280;6243;51.244;6.774;2023-03-26T13:36:38;152328.56;;;19.27;58.92
12358;BME280;6243;51.244;6.774;2023-03-26T13:39:16;152351.66;;;19.36;59.17
12358;BME280;6243;51.244;6.774;2023-03-26T13:41:59;152349.06;;;19.35;58.39
12358;BME280;6243;51.244;6.774;2023-03-26T13:44:32;152370.88;;;19.43;58.59
12358;BME280;6243;51.244;6.774;2023-03-26T13:47:04;152269.69;;;19.03;58.27